Terminal Aerodrome Forecast
Issued by NWS

Home | Current Version | Previous Version | Text Only | Print | Product List | Glossary On
Versions: 1 2 3 4 5 6 7 8 9 10 11 12 13 14 15
086
FTUS41 KLWX 252340
TAFMTN
TAF
KMTN 252340Z 2600/2624 VRB03KT P6SM SCT250
     FM261400 15007KT P6SM BKN100
     FM261800 16011G18KT P6SM BKN035
      AMD NOT SKED 2602/2612=

USA.gov is the U.S. government's official web portal to all federal, state and local government web resources and services.